Time;durP1;ratioP1;P1;durP2;ratioP2;P2;SDS_P1;SDS_P2;PMS_P1;PMS_P2;Temp;Humidity;BMP_temperature;BMP_pressure;BME280_temperature;BME280_humidity;BME280_pressure;Samples;Min_cycle;Max_cycle;Signal;HPM_P1;HPM_P2
2021/04/25 00:00:17;;;;;;;18.98;10.93;;;;;;;5.42;65.66;96980.05;1686324;82;21151;-86
2021/04/25 00:02:46;;;;;;;20.30;10.80;;;;;;;5.52;65.06;96967.09;1718655;83;21091;-86
2021/04/25 00:05:17;;;;;;;16.37;10.72;;;;;;;5.63;64.91;96967.52;1731951;81;21137;-86
2021/04/25 00:07:46;;;;;;;17.85;10.60;;;;;;;5.65;65.04;96966.27;1736406;83;21143;-86
2021/04/25 00:10:17;;;;;;;26.93;12.82;;;;;;;5.63;65.00;96970.98;1719159;83;21635;-86
2021/04/25 00:12:45;;;;;;;31.73;14.03;;;;;;;5.64;64.74;96970.45;1669863;84;21136;-86
2021/04/25 00:15:20;;;;;;;26.65;14.33;;;;;;;5.74;64.38;96967.18;1663188;86;21165;-86
2021/04/25 00:17:48;;;;;;;29.23;16.80;;;;;;;5.80;64.37;96969.67;1669918;84;21480;-86
2021/04/25 00:20:17;;;;;;;31.77;17.67;;;;;;;5.78;65.02;96970.44;1678701;84;21607;-86
2021/04/25 00:22:46;;;;;;;26.05;14.38;;;;;;;5.64;65.52;96969.14;1676139;85;21484;-86
2021/04/25 00:25:16;;;;;;;25.17;14.85;;;;;;;5.59;65.41;96972.98;1676092;86;21136;-85
2021/04/25 00:27:44;;;;;;;26.73;14.53;;;;;;;5.56;65.22;96969.00;1675582;86;21275;-86
2021/04/25 00:30:16;;;;;;;22.27;14.23;;;;;;;5.59;65.17;96966.41;1675797;85;21501;-85
2021/04/25 00:32:44;;;;;;;25.57;14.63;;;;;;;5.57;65.24;96968.48;1675527;86;21136;-85
2021/04/25 00:35:12;;;;;;;24.45;14.13;;;;;;;5.54;65.28;96958.44;1659699;86;21197;-85
2021/04/25 00:37:39;;;;;;;24.32;14.50;;;;;;;5.55;65.18;96958.72;1651090;86;21173;-85
2021/04/25 00:40:10;;;;;;;26.73;16.45;;;;;;;5.56;65.19;96961.63;1670468;85;21555;-85
2021/04/25 00:42:37;;;;;;;;;;;;;;;5.54;65.46;96961.87;1676098;86;21253;-85
2021/04/25 00:45:09;;;;;;;27.37;14.95;;;;;;;5.52;65.64;96961.83;1661502;84;20173;-85
2021/04/25 00:47:36;;;;;;;30.08;16.25;;;;;;;5.50;65.72;96954.70;1670598;84;21124;-85
2021/04/25 00:50:04;;;;;;;33.35;19.92;;;;;;;5.46;66.38;96957.50;1676353;84;21143;-85
2021/04/25 00:52:41;;;;;;;34.73;20.25;;;;;;;5.35;66.50;96953.92;1668334;85;21259;-86
2021/04/25 00:55:10;;;;;;;33.23;17.75;;;;;;;5.30;66.13;96957.23;1669475;84;21366;-85
2021/04/25 00:57:37;;;;;;;22.42;14.90;;;;;;;5.28;66.11;96955.88;1669284;84;21171;-86
2021/04/25 01:00:09;;;;;;;25.68;15.98;;;;;;;5.22;66.01;96960.26;1670390;84;21116;-85
2021/04/25 01:02:37;;;;;;;26.73;14.13;;;;;;;5.15;65.95;96966.67;1655487;85;21165;-86
2021/04/25 01:05:09;;;;;;;25.97;15.58;;;;;;;5.12;65.96;96965.84;1679873;84;21540;-85
2021/04/25 01:07:36;;;;;;;24.70;14.10;;;;;;;5.09;65.82;96962.37;1670387;85;21279;-86
2021/04/25 01:10:06;;;;;;;25.27;15.38;;;;;;;5.12;65.78;96967.95;1671649;85;21143;-85
2021/04/25 01:12:34;;;;;;;25.95;14.40;;;;;;;5.15;65.61;96966.16;1670621;84;21274;-85
2021/04/25 01:15:01;;;;;;;29.35;17.50;;;;;;;5.22;65.61;96962.09;1676678;84;21149;-85
2021/04/25 01:17:28;;;;;;;30.40;15.98;;;;;;;5.16;65.57;96961.70;1670840;85;21314;-85
2021/04/25 01:19:58;;;;;;;26.17;16.82;;;;;;;5.16;65.86;96964.33;1674357;85;21330;-85
2021/04/25 01:22:26;;;;;;;31.02;17.15;;;;;;;5.16;65.85;96969.06;1656819;85;21123;-86
2021/04/25 01:24:53;;;;;;;31.73;18.25;;;;;;;5.18;65.75;96963.05;1655341;84;21913;-85
2021/04/25 01:27:21;;;;;;;26.30;15.70;;;;;;;5.25;65.50;96956.36;1663051;85;21154;-85
2021/04/25 01:29:48;;;;;;;28.90;15.25;;;;;;;5.32;65.34;96954.37;1674859;84;21632;-85
2021/04/25 01:32:15;;;;;;;26.15;15.48;;;;;;;5.29;65.81;96950.91;1670035;84;21598;-85
2021/04/25 01:34:42;;;;;;;27.52;16.07;;;;;;;5.16;65.91;96955.13;1659119;84;21494;-86
2021/04/25 01:37:09;;;;;;;32.10;15.95;;;;;;;5.01;65.93;96953.81;1659570;85;21539;-85
2021/04/25 01:39:36;;;;;;;32.63;17.75;;;;;;;4.96;65.83;96958.18;1678766;84;21132;-85
2021/04/25 01:42:04;;;;;;;31.23;18.92;;;;;;;4.97;65.86;96956.63;1672398;84;21526;-85
2021/04/25 01:44:31;;;;;;;31.55;17.32;;;;;;;4.99;65.80;96958.50;1666685;84;21183;-86
2021/04/25 01:46:58;;;;;;;32.28;18.37;;;;;;;4.99;65.84;96957.19;1664134;84;21148;-86
2021/04/25 01:49:25;;;;;;;32.25;18.30;;;;;;;4.98;65.72;96953.48;1662897;85;21136;-85
2021/04/25 01:51:52;;;;;;;34.43;18.32;;;;;;;5.00;65.72;96959.30;1666070;85;21565;-86
2021/04/25 01:54:19;;;;;;;35.15;18.48;;;;;;;4.98;65.75;96964.80;1674272;85;21701;-86
2021/04/25 01:56:46;;;;;;;34.65;18.70;;;;;;;4.97;65.75;96959.26;1665228;84;21139;-85
2021/04/25 01:59:13;;;;;;;29.45;16.73;;;;;;;4.91;65.99;96953.61;1666796;85;21195;-86
2021/04/25 02:01:41;;;;;;;34.88;19.30;;;;;;;4.86;66.33;96956.66;1657287;84;21167;-86
2021/04/25 02:04:08;;;;;;;31.93;18.73;;;;;;;4.59;66.95;96949.30;1666127;84;21174;-85
2021/04/25 02:06:38;;;;;;;32.28;19.20;;;;;;;4.41;67.74;96948.14;1668005;84;21642;-86
2021/04/25 02:09:06;;;;;;;34.10;18.42;;;;;;;4.38;67.55;96940.22;1672326;84;21167;-86
2021/04/25 02:11:33;;;;;;;33.10;19.90;;;;;;;4.30;67.52;96919.56;1668068;85;21097;-86
2021/04/25 02:14:00;;;;;;;29.77;18.90;;;;;;;4.50;67.48;96946.73;1678725;84;21121;-86
2021/04/25 02:16:27;;;;;;;38.17;19.40;;;;;;;4.53;67.33;96943.67;1652730;85;21167;-86
2021/04/25 02:18:54;;;;;;;28.62;17.00;;;;;;;4.57;67.31;96943.48;1679485;84;21327;-86
2021/04/25 02:21:21;;;;;;;31.95;16.93;;;;;;;4.62;67.30;96944.89;1677342;84;21124;-86
2021/04/25 02:23:48;;;;;;;33.13;17.82;;;;;;;4.71;67.29;96944.02;1661320;84;21258;-86
2021/04/25 02:26:14;;;;;;;32.20;17.90;;;;;;;4.75;67.27;96942.00;1665563;85;21144;-86
2021/04/25 02:28:41;;;;;;;26.62;17.67;;;;;;;4.76;67.40;96945.43;1678927;85;21817;-86
2021/04/25 02:31:08;;;;;;;29.30;17.12;;;;;;;4.76;67.56;96939.66;1693964;83;21586;-86
2021/04/25 02:33:36;;;;;;;29.45;17.67;;;;;;;4.75;67.58;96938.06;1683078;84;21534;-86
2021/04/25 02:36:05;;;;;;;31.35;18.20;;;;;;;4.67;67.41;96942.91;1674573;85;21131;-86
2021/04/25 02:38:33;;;;;;;31.55;17.17;;;;;;;4.60;67.33;96935.14;1668036;85;21335;-86
2021/04/25 02:41:01;;;;;;;30.55;17.37;;;;;;;4.58;67.37;96937.20;1671706;85;21281;-86
2021/04/25 02:43:28;;;;;;;29.72;16.20;;;;;;;4.50;67.24;96931.50;1677875;84;21585;-86
2021/04/25 02:45:55;;;;;;;30.05;16.37;;;;;;;4.45;67.22;96928.27;1686610;84;21169;-85
2021/04/25 02:48:22;;;;;;;28.07;15.98;;;;;;;4.43;67.28;96930.33;1678965;84;21135;-86
2021/04/25 02:50:49;;;;;;;28.73;16.65;;;;;;;4.42;67.15;96926.11;1682341;84;21144;-86
2021/04/25 02:53:16;;;;;;;29.63;17.10;;;;;;;4.42;67.13;96920.86;1677369;85;21179;-86
2021/04/25 02:55:43;;;;;;;29.87;18.27;;;;;;;4.39;67.08;96914.77;1680544;84;21145;-86
2021/04/25 02:58:11;;;;;;;26.85;16.27;;;;;;;4.38;66.98;96915.28;1678712;84;21316;-86
2021/04/25 03:00:38;;;;;;;29.48;17.23;;;;;;;4.30;66.93;96909.06;1682505;84;21160;-86
2021/04/25 03:03:05;;;;;;;30.40;17.87;;;;;;;4.01;67.43;96906.06;1672922;85;21168;-86
2021/04/25 03:05:33;;;;;;;31.27;18.87;;;;;;;3.70;69.21;96909.83;1680447;84;21545;-86
2021/04/25 03:08:00;;;;;;;33.50;18.12;;;;;;;3.56;69.41;96915.28;1671945;84;21146;-86
2021/04/25 03:10:28;;;;;;;30.05;18.52;;;;;;;3.41;70.13;96915.42;1674980;84;21209;-86
2021/04/25 03:12:56;;;;;;;30.48;17.95;;;;;;;3.34;70.88;96923.88;1690084;84;21523;-85
2021/04/25 03:15:24;;;;;;;34.38;19.12;;;;;;;3.29;70.97;96928.49;1683380;84;21492;-86
2021/04/25 03:17:52;;;;;;;29.60;18.35;;;;;;;3.26;70.71;96919.27;1694694;84;21171;-85
2021/04/25 03:20:22;;;;;;;29.30;17.40;;;;;;;3.22;70.70;96919.40;1693285;84;21157;-85
2021/04/25 03:22:51;;;;;;;30.97;17.35;;;;;;;3.24;70.76;96923.13;1695297;84;21132;-86
2021/04/25 03:25:19;;;;;;;32.28;17.05;;;;;;;3.24;70.59;96917.38;1691211;84;21175;-85
2021/04/25 03:27:48;;;;;;;30.30;17.02;;;;;;;3.27;70.60;96917.44;1686504;84;21157;-85
2021/04/25 03:30:18;;;;;;;30.88;16.75;;;;;;;3.29;70.56;96918.02;1678499;84;21155;-86
2021/04/25 03:32:46;;;;;;;28.80;16.70;;;;;;;3.28;70.71;96917.73;1693581;84;21193;-86
2021/04/25 03:35:17;;;;;;;29.40;17.48;;;;;;;3.34;70.81;96928.61;1688994;84;21590;-85
2021/04/25 03:37:45;;;;;;;27.60;16.23;;;;;;;3.35;70.74;96924.16;1675944;84;21316;-86
2021/04/25 03:40:17;;;;;;;28.95;16.48;;;;;;;3.37;71.01;96925.53;1688702;83;21516;-85
2021/04/25 03:42:44;;;;;;;27.00;16.17;;;;;;;3.35;71.11;96928.89;1688756;84;21205;-86
2021/04/25 03:45:14;;;;;;;28.83;16.45;;;;;;;3.37;71.11;96922.91;1691577;84;21548;-85
2021/04/25 03:47:48;;;;;;;25.68;15.15;;;;;;;3.34;71.31;96915.50;1696098;84;21151;-85
2021/04/25 03:50:18;;;;;;;27.17;16.60;;;;;;;3.35;71.16;96914.48;1698744;84;22168;-85
2021/04/25 03:52:46;;;;;;;27.00;18.07;;;;;;;3.32;71.19;96916.25;1683949;84;21182;-86
2021/04/25 03:55:16;;;;;;;30.88;18.62;;;;;;;3.32;71.19;96912.31;1687172;84;21175;-85
2021/04/25 03:57:44;;;;;;;29.12;16.48;;;;;;;3.35;70.98;96915.80;1696127;84;21137;-85
2021/04/25 04:00:15;;;;;;;25.40;14.83;;;;;;;3.40;70.50;96913.31;1697521;83;21160;-85
2021/04/25 04:02:42;;;;;;;26.40;15.63;;;;;;;3.38;70.27;96914.06;1692606;84;21166;-85
2021/04/25 04:05:12;;;;;;;27.55;16.25;;;;;;;3.31;70.10;96905.48;1693773;84;21140;-85
2021/04/25 04:07:39;;;;;;;31.75;16.52;;;;;;;3.23;70.07;96911.83;1694528;84;21153;-85
2021/04/25 04:10:07;;;;;;;24.90;15.55;;;;;;;3.24;70.22;96908.72;1690220;84;21176;-86
2021/04/25 04:12:35;;;;;;;26.87;15.25;;;;;;;3.37;70.19;96913.73;1693947;84;21194;-85
2021/04/25 04:15:03;;;;;;;26.48;14.73;;;;;;;3.40;69.97;96917.25;1696169;84;21237;-86
2021/04/25 04:17:31;;;;;;;30.52;17.85;;;;;;;3.37;70.08;96913.73;1690660;84;21112;-85
2021/04/25 04:19:59;;;;;;;30.62;17.98;;;;;;;3.30;70.00;96914.36;1694846;84;21165;-85
2021/04/25 04:22:26;;;;;;;32.30;18.77;;;;;;;3.19;70.22;96915.13;1692501;84;21159;-85
2021/04/25 04:24:53;;;;;;;32.10;18.67;;;;;;;3.00;70.92;96907.05;1690292;84;21480;-85
2021/04/25 04:27:20;;;;;;;30.43;18.55;;;;;;;2.98;71.09;96909.89;1685321;84;21589;-85
2021/04/25 04:29:47;;;;;;;35.23;19.67;;;;;;;3.05;71.33;96909.78;1693231;84;21120;-86
2021/04/25 04:32:14;;;;;;;32.38;18.92;;;;;;;3.10;71.36;96907.31;1683813;84;21531;-86
2021/04/25 04:34:41;;;;;;;35.38;20.12;;;;;;;3.16;71.45;96916.89;1679164;84;21543;-85
2021/04/25 04:37:08;;;;;;;26.12;17.07;;;;;;;3.21;71.36;96920.42;1691713;84;21518;-85
2021/04/25 04:39:36;;;;;;;28.50;16.95;;;;;;;3.36;71.30;96917.39;1684714;84;21162;-86
2021/04/25 04:42:03;;;;;;;28.80;16.50;;;;;;;3.50;71.32;96914.05;1688149;84;21177;-86
2021/04/25 04:44:30;;;;;;;27.93;16.82;;;;;;;3.56;71.33;96913.17;1677956;84;21285;-86
2021/04/25 04:46:57;;;;;;;28.77;17.07;;;;;;;3.57;71.43;96923.42;1690673;84;21140;-86
2021/04/25 04:49:24;;;;;;;26.90;15.23;;;;;;;3.57;71.50;96926.56;1699191;83;21163;-86
2021/04/25 04:51:51;;;;;;;26.27;15.40;;;;;;;3.57;71.62;96919.49;1674294;84;21299;-86
2021/04/25 04:54:18;;;;;;;26.07;15.75;;;;;;;3.64;71.57;96922.51;1689401;84;21160;-86
2021/04/25 04:56:45;;;;;;;27.40;16.07;;;;;;;3.69;71.48;96918.72;1689227;84;21189;-86
2021/04/25 04:59:12;;;;;;;28.85;15.35;;;;;;;3.79;71.35;96926.28;1690497;84;21143;-86
2021/04/25 05:01:39;;;;;;;26.87;15.95;;;;;;;3.96;71.19;96923.81;1698271;84;21233;-86
2021/04/25 05:04:07;;;;;;;31.15;15.55;;;;;;;4.10;71.08;96925.17;1692406;84;21140;-86
2021/04/25 05:06:34;;;;;;;28.75;15.05;;;;;;;4.23;70.84;96923.34;1691827;84;21181;-86
2021/04/25 05:09:01;;;;;;;22.25;13.85;;;;;;;4.27;70.84;96923.96;1696968;84;21189;-86
2021/04/25 05:11:28;;;;;;;23.42;13.58;;;;;;;4.38;70.99;96923.67;1697735;84;21102;-86
2021/04/25 05:13:55;;;;;;;22.48;12.58;;;;;;;4.52;71.02;96929.47;1679411;84;21164;-85
2021/04/25 05:16:22;;;;;;;22.25;13.98;;;;;;;4.68;71.02;96928.74;1678987;85;21189;-86
2021/04/25 05:18:49;;;;;;;25.80;15.72;;;;;;;4.86;71.06;96927.77;1660434;85;21133;-85
2021/04/25 05:21:16;;;;;;;25.90;14.68;;;;;;;5.04;70.87;96925.75;1659885;85;21371;-86
2021/04/25 05:23:43;;;;;;;28.45;16.73;;;;;;;6.39;71.76;96916.08;1665276;85;21211;-85
2021/04/25 05:26:10;;;;;;;29.65;17.10;;;;;;;8.31;69.11;96913.66;1670182;85;21138;-85
2021/04/25 05:28:37;;;;;;;28.45;17.05;;;;;;;9.50;65.45;96911.95;1667754;85;21641;-85
2021/04/25 05:31:04;;;;;;;28.90;15.63;;;;;;;10.52;63.30;96907.10;1676148;85;21290;-85
2021/04/25 05:33:31;;;;;;;23.80;16.02;;;;;;;11.26;61.50;96908.38;1659367;85;21139;-85
2021/04/25 05:35:58;;;;;;;25.20;15.75;;;;;;;11.72;58.56;96904.06;1673343;85;21166;-86
2021/04/25 05:38:25;;;;;;;22.62;14.30;;;;;;;12.34;58.49;96901.66;1664432;85;21116;-86
2021/04/25 05:40:52;;;;;;;24.50;14.73;;;;;;;13.06;57.35;96903.20;1661899;85;21148;-83
2021/04/25 05:43:19;;;;;;;24.32;15.38;;;;;;;13.35;56.80;96899.64;1662725;85;21148;-83
2021/04/25 05:45:46;;;;;;;22.35;14.73;;;;;;;13.77;54.49;96896.08;1678984;84;21527;-83
2021/04/25 05:48:14;;;;;;;20.85;14.55;;;;;;;14.60;55.70;96887.70;1671740;84;21596;-83
2021/04/25 05:50:41;;;;;;;23.27;14.25;;;;;;;15.71;54.23;96890.41;1669276;84;21153;-83
2021/04/25 05:53:08;;;;;;;21.90;12.90;;;;;;;15.71;49.97;96893.87;1663179;84;21269;-83
2021/04/25 05:55:35;;;;;;;18.95;12.60;;;;;;;15.52;49.47;96893.23;1668761;85;21502;-83
2021/04/25 05:58:02;;;;;;;21.17;13.75;;;;;;;15.89;47.17;96886.74;1671024;84;21187;-83
2021/04/25 06:00:33;;;;;;;25.17;14.90;;;;;;;15.59;46.88;96896.80;1676713;84;21196;-83
2021/04/25 06:03:00;;;;;;;23.70;14.53;;;;;;;14.91;46.42;96893.20;1679133;84;21151;-83
2021/04/25 06:05:27;;;;;;;22.60;13.43;;;;;;;14.16;45.39;96899.69;1675701;84;21188;-83
2021/04/25 06:07:54;;;;;;;20.12;13.35;;;;;;;14.53;45.27;96897.45;1665034;85;21266;-83
2021/04/25 06:10:23;;;;;;;21.85;13.10;;;;;;;13.95;44.34;96899.80;1660164;85;21237;-83
2021/04/25 06:12:51;;;;;;;16.55;10.05;;;;;;;13.54;47.29;96903.11;1674790;84;21146;-83
2021/04/25 06:15:22;;;;;;;13.32;9.03;;;;;;;13.53;47.19;96898.86;1683617;84;21465;-83
2021/04/25 06:17:50;;;;;;;;;;;;;;;13.34;46.96;96896.73;1681291;84;21152;-83
2021/04/25 06:20:19;;;;;;;7.53;4.10;;;;;;;13.20;46.49;96895.87;1680414;84;20141;-83
2021/04/25 06:22:47;;;;;;;9.80;5.08;;;;;;;13.21;43.45;96894.25;1686528;84;21169;-83
2021/04/25 06:25:17;;;;;;;11.65;6.85;;;;;;;13.12;44.12;96891.97;1671648;85;21202;-83
2021/04/25 06:27:44;;;;;;;15.18;8.15;;;;;;;13.07;45.16;96896.80;1678806;85;21281;-83
2021/04/25 06:30:14;;;;;;;12.85;8.53;;;;;;;13.29;46.09;96902.93;1673036;84;21155;-83
2021/04/25 06:32:43;;;;;;;14.93;7.90;;;;;;;13.34;44.58;96895.40;1689022;84;21165;-82
2021/04/25 06:35:13;;;;;;;11.68;6.47;;;;;;;13.43;45.85;96896.34;1673205;84;21251;-83
2021/04/25 06:37:42;;;;;;;11.08;6.08;;;;;;;13.80;45.29;96900.05;1674519;84;22131;-83
2021/04/25 06:40:12;;;;;;;10.20;6.00;;;;;;;13.55;43.08;96895.91;1672473;84;21560;-80
2021/04/25 06:42:40;;;;;;;14.03;6.92;;;;;;;12.65;43.39;96898.92;1669846;84;21193;-81
2021/04/25 06:45:15;;;;;;;15.53;7.60;;;;;;;12.30;44.45;96899.32;1665174;85;21281;-80
2021/04/25 06:47:42;;;;;;;15.98;9.23;;;;;;;11.89;43.71;96899.70;1673841;84;21160;-80
2021/04/25 06:50:13;;;;;;;16.65;9.73;;;;;;;11.04;44.19;96897.88;1726761;81;21231;-80
2021/04/25 06:52:42;;;;;;;;;;;;;;;10.34;45.31;96904.51;1664462;86;21492;-83
2021/04/25 06:55:15;;;;;;;13.18;7.58;;;;;;;10.00;46.16;96898.98;1663191;86;20176;-83
2021/04/25 06:57:44;;;;;;;14.53;7.62;;;;;;;9.65;45.93;96906.41;1665001;86;21171;-84
2021/04/25 07:00:14;;;;;;;15.10;7.80;;;;;;;9.28;46.77;96902.12;1673737;85;21189;-85
2021/04/25 07:02:41;;;;;;;14.80;9.38;;;;;;;9.02;47.59;96901.83;1675449;85;21153;-85
2021/04/25 07:05:10;;;;;;;18.32;11.00;;;;;;;8.83;47.91;96908.09;1670432;86;21159;-84
2021/04/25 07:07:37;;;;;;;22.22;12.90;;;;;;;8.91;48.99;96907.08;1689263;84;21168;-86
2021/04/25 07:10:07;;;;;;;21.23;12.40;;;;;;;8.95;49.44;96913.16;1668069;84;21140;-84
2021/04/25 07:12:34;;;;;;;20.63;12.83;;;;;;;8.97;49.85;96911.84;1678102;84;21518;-85
2021/04/25 07:15:01;;;;;;;23.30;11.88;;;;;;;9.06;50.15;96914.26;1675382;84;21895;-85
2021/04/25 07:17:28;;;;;;;27.17;14.95;;;;;;;8.99;49.73;96916.34;1675153;84;21163;-84
2021/04/25 07:19:55;;;;;;;27.98;15.20;;;;;;;8.78;50.47;96914.17;1732637;83;21509;-85
2021/04/25 07:22:23;;;;;;;22.85;13.78;;;;;;;8.74;50.65;96910.98;1663443;86;21148;-85
2021/04/25 07:24:50;;;;;;;27.15;16.60;;;;;;;8.75;50.90;96909.41;1663068;85;21569;-84
2021/04/25 07:27:19;;;;;;;24.25;14.40;;;;;;;8.63;51.32;96909.61;1661438;85;21150;-86
2021/04/25 07:29:48;;;;;;;24.43;13.58;;;;;;;8.72;51.17;96913.86;1667847;85;21243;-85
2021/04/25 07:32:17;;;;;;;24.05;14.53;;;;;;;8.95;51.52;96911.84;1667191;85;21515;-84
2021/04/25 07:34:46;;;;;;;25.88;12.73;;;;;;;8.91;50.81;96903.11;1666716;85;21195;-84
2021/04/25 07:37:14;;;;;;;18.73;11.05;;;;;;;8.78;50.74;96908.88;1674729;84;21157;-86
2021/04/25 07:39:43;;;;;;;18.20;11.50;;;;;;;8.73;50.60;96905.44;1685868;83;21156;-84
2021/04/25 07:42:11;;;;;;;19.55;12.37;;;;;;;8.47;50.41;96904.52;1690092;83;21144;-85
2021/04/25 07:44:41;;;;;;;23.42;13.22;;;;;;;8.36;50.95;96905.52;1671597;84;21205;-84
2021/04/25 07:47:09;;;;;;;21.05;12.68;;;;;;;8.24;51.69;96901.19;1731740;81;21468;-84
2021/04/25 07:49:37;;;;;;;23.83;12.90;;;;;;;8.28;52.32;96902.79;1655504;84;21560;-84
2021/04/25 07:52:04;;;;;;;24.47;13.05;;;;;;;8.31;52.27;96899.14;1674671;85;21130;-85
2021/04/25 07:54:33;;;;;;;24.47;12.88;;;;;;;8.17;52.50;96903.80;1675781;85;21130;-85
2021/04/25 07:57:00;;;;;;;22.85;12.98;;;;;;;7.99;52.74;96907.63;1678627;85;21312;-85
2021/04/25 07:59:28;;;;;;;22.62;12.05;;;;;;;7.94;52.73;96911.05;1676111;85;21510;-85
2021/04/25 08:01:55;;;;;;;23.90;13.88;;;;;;;7.87;53.04;96909.13;1677679;85;21166;-84
2021/04/25 08:04:24;;;;;;;21.75;13.80;;;;;;;7.80;53.06;96909.88;1668891;85;21103;-83
2021/04/25 08:06:51;;;;;;;23.57;14.07;;;;;;;7.61;53.75;96912.12;1649364;85;21255;-85
2021/04/25 08:09:18;;;;;;;22.30;12.90;;;;;;;7.44;53.95;96914.06;1675919;84;21588;-85
2021/04/25 08:11:45;;;;;;;21.82;12.30;;;;;;;7.52;54.18;96912.30;1675504;85;21138;-85
2021/04/25 08:14:15;;;;;;;26.27;13.85;;;;;;;7.53;53.49;96910.45;1665271;85;21564;-82
2021/04/25 08:16:42;;;;;;;27.22;13.70;;;;;;;7.54;53.96;96907.56;1687390;83;21159;-85
2021/04/25 08:19:09;;;;;;;21.23;13.20;;;;;;;7.48;54.04;96892.75;1678958;83;21246;-84
2021/04/25 08:21:36;;;;;;;19.82;12.40;;;;;;;7.58;54.08;96898.09;1661774;85;21169;-85
2021/04/25 08:24:06;;;;;;;23.80;12.98;;;;;;;7.74;54.31;96890.59;1678970;85;21154;-84
2021/04/25 08:26:34;;;;;;;22.13;12.28;;;;;;;7.96;54.59;96888.34;1678459;84;21588;-85
2021/04/25 08:29:02;;;;;;;18.45;12.45;;;;;;;8.13;54.20;96885.54;1680158;83;21222;-85
2021/04/25 08:31:29;;;;;;;20.72;12.15;;;;;;;8.22;53.89;96887.45;1677663;84;21310;-85
2021/04/25 08:33:56;;;;;;;18.10;11.22;;;;;;;8.38;54.29;96887.56;1671144;83;21288;-86
2021/04/25 08:36:23;;;;;;;16.42;10.48;;;;;;;8.54;53.89;96877.33;1674679;84;21137;-85
2021/04/25 08:38:51;;;;;;;19.37;10.82;;;;;;;8.71;53.40;96877.91;1682667;83;21180;-80
2021/04/25 08:41:21;;;;;;;20.27;10.53;;;;;;;8.87;53.44;96888.04;1668741;84;21191;-84
2021/04/25 08:43:50;;;;;;;17.57;10.68;;;;;;;8.98;52.82;96890.16;1688963;83;21140;-83
2021/04/25 08:46:21;;;;;;;17.32;10.45;;;;;;;9.03;52.85;96884.37;1671742;85;21679;-83
2021/04/25 08:48:51;;;;;;;17.40;9.60;;;;;;;9.09;52.75;96884.64;1677030;84;21155;-83
2021/04/25 08:51:20;;;;;;;18.98;11.80;;;;;;;9.10;52.72;96885.44;1692861;84;21114;-83
2021/04/25 08:53:49;;;;;;;15.35;8.85;;;;;;;9.06;52.68;96888.34;1679836;84;21297;-84
2021/04/25 08:56:18;;;;;;;18.55;10.72;;;;;;;8.95;52.54;96885.40;1695656;83;21186;-84
2021/04/25 08:58:48;;;;;;;19.40;10.32;;;;;;;8.73;53.24;96884.29;1693123;84;21497;-84
2021/04/25 09:01:15;;;;;;;15.18;8.33;;;;;;;8.72;52.84;96886.11;1678845;84;21333;-83
2021/04/25 09:03:42;;;;;;;16.52;9.85;;;;;;;8.71;52.48;96879.23;1679397;84;21267;-82
2021/04/25 09:06:12;;;;;;;17.20;9.95;;;;;;;8.53;51.90;96877.06;1694964;84;21164;-83
2021/04/25 09:08:48;;;;;;;14.35;9.95;;;;;;;8.36;52.23;96873.81;1690607;84;21138;-84
2021/04/25 09:11:39;;;;;;;16.73;10.30;;;;;;;8.20;52.33;96882.16;1677489;84;21659;-86
2021/04/25 09:14:24;;;;;;;;;;;;;;;8.16;52.24;96879.73;1682187;84;21527;-86
2021/04/25 09:16:59;;;;;;;14.68;8.10;;;;;;;8.02;51.20;96880.72;1639235;85;20132;-86
2021/04/25 09:19:50;;;;;;;18.52;7.78;;;;;;;8.00;51.54;96877.54;1649690;85;21287;-86
2021/04/25 09:22:19;;;;;;;14.20;7.65;;;;;;;8.13;52.14;96873.12;1646060;85;21220;-86
2021/04/25 09:24:47;;;;;;;14.10;8.48;;;;;;;8.26;52.26;96871.88;1647401;85;21139;-85
2021/04/25 09:27:28;;;;;;;15.95;8.75;;;;;;;8.30;51.92;96872.45;1647915;85;21275;-85
2021/04/25 09:29:58;;;;;;;16.15;8.33;;;;;;;8.36;52.09;96871.17;1647634;85;21527;-85
2021/04/25 09:32:30;;;;;;;14.95;8.45;;;;;;;8.21;51.12;96876.63;1645925;87;21536;-86
2021/04/25 09:35:12;;;;;;;13.70;8.08;;;;;;;8.13;51.12;96875.77;1652396;85;21119;-87
2021/04/25 09:37:43;;;;;;;13.50;8.45;;;;;;;8.14;51.20;96880.53;1698315;83;21126;-86
2021/04/25 09:40:23;;;;;;;15.55;8.43;;;;;;;8.11;51.42;96871.80;1689483;83;21569;-87
2021/04/25 09:43:09;;;;;;;11.22;6.65;;;;;;;8.13;51.67;96872.34;1695826;83;21139;-85
2021/04/25 09:45:43;;;;;;;11.90;7.40;;;;;;;8.25;52.55;96869.77;1699608;83;21162;-88
2021/04/25 09:48:31;;;;;;;14.60;7.75;;;;;;;8.33;51.60;96864.53;1709646;83;21147;-86
2021/04/25 09:51:16;;;;;;;12.15;6.97;;;;;;;8.25;51.11;96868.45;1700008;83;21192;-85
2021/04/25 09:53:58;;;;;;;12.90;7.05;;;;;;;8.30;51.62;96865.85;1699971;83;21487;-85
2021/04/25 09:56:38;;;;;;;11.78;7.37;;;;;;;8.38;50.86;96869.06;1699000;83;21150;-85
2021/04/25 09:59:08;;;;;;;18.25;8.78;;;;;;;8.23;50.99;96863.95;1699893;83;21233;-85
2021/04/25 10:01:42;;;;;;;17.07;9.10;;;;;;;8.25;51.45;96865.80;1710978;83;21128;-85
2021/04/25 10:04:33;;;;;;;16.32;9.78;;;;;;;8.19;52.30;96866.84;1701300;83;21340;-86
2021/04/25 10:07:02;;;;;;;17.30;9.85;;;;;;;8.20;52.68;96872.39;1697162;83;21159;-85
2021/04/25 10:09:29;;;;;;;15.13;9.68;;;;;;;8.22;52.87;96871.61;1696425;83;21150;-86
2021/04/25 10:12:00;;;;;;;16.00;9.78;;;;;;;8.22;53.04;96874.25;1695735;83;21165;-86
2021/04/25 10:14:30;;;;;;;16.25;10.32;;;;;;;8.21;53.07;96875.30;1694532;83;21659;-85
2021/04/25 10:16:59;;;;;;;15.93;10.03;;;;;;;8.19;53.19;96874.77;1731505;81;21516;-84
2021/04/25 10:19:27;;;;;;;14.85;9.43;;;;;;;8.21;53.29;96876.63;1658369;84;21183;-86
2021/04/25 10:21:55;;;;;;;17.32;9.60;;;;;;;8.21;53.25;96871.87;1692470;84;21155;-87
2021/04/25 10:24:27;;;;;;;15.33;8.63;;;;;;;8.25;52.89;96870.30;1696319;83;21143;-85
2021/04/25 10:27:11;;;;;;;14.23;8.30;;;;;;;8.27;52.49;96870.30;1672461;84;21867;-86
2021/04/25 10:29:51;;;;;;;15.90;8.85;;;;;;;8.29;52.27;96870.84;1694131;83;21128;-85
2021/04/25 10:32:21;;;;;;;15.80;8.50;;;;;;;8.24;52.36;96865.53;1693311;84;21168;-86
2021/04/25 10:34:51;;;;;;;14.90;8.60;;;;;;;8.18;52.36;96865.25;1669274;84;21224;-85
2021/04/25 10:37:18;;;;;;;14.25;9.18;;;;;;;8.16;52.35;96866.02;1672413;84;21172;-82
2021/04/25 10:39:50;;;;;;;15.78;8.48;;;;;;;8.11;52.30;96867.84;1665178;84;22402;-85
2021/04/25 10:42:26;;;;;;;12.68;7.50;;;;;;;8.16;52.06;96866.53;1663578;84;21159;-85
2021/04/25 10:45:05;;;;;;;13.60;7.75;;;;;;;8.22;52.17;96867.64;1667514;86;21139;-86
2021/04/25 10:47:38;;;;;;;14.75;7.50;;;;;;;8.33;52.41;96863.22;1672502;84;21108;-85
2021/04/25 10:50:20;;;;;;;13.08;7.08;;;;;;;8.38;51.54;96865.11;1674638;84;21557;-85
2021/04/25 10:52:50;;;;;;;13.95;7.78;;;;;;;8.33;50.02;96858.73;1669265;86;21191;-86
2021/04/25 10:55:24;;;;;;;12.50;6.72;;;;;;;8.24;50.49;96860.25;1675999;86;21184;-86
2021/04/25 10:58:00;;;;;;;11.97;7.05;;;;;;;8.20;50.70;96855.23;1651438;86;21174;-86
2021/04/25 11:00:37;;;;;;;14.23;8.33;;;;;;;8.21;49.30;96852.85;1678563;84;21585;-85
2021/04/25 11:03:25;;;;;;;12.35;6.97;;;;;;;8.19;50.14;96857.59;1642928;87;21116;-85
2021/04/25 11:05:53;;;;;;;15.25;7.67;;;;;;;8.23;49.08;96852.59;1665910;86;21162;-86
2021/04/25 11:08:36;;;;;;;13.03;7.22;;;;;;;8.29;49.02;96856.84;1676041;86;21136;-85
2021/04/25 11:11:10;;;;;;;13.18;6.47;;;;;;;8.38;49.31;96857.18;1675077;85;21273;-86
2021/04/25 11:13:50;;;;;;;10.95;6.60;;;;;;;8.61;49.81;96857.55;1671161;86;21637;-86
2021/04/25 11:16:30;;;;;;;12.35;7.25;;;;;;;8.83;49.61;96857.34;1672739;84;21191;-85
2021/04/25 11:19:12;;;;;;;12.50;6.72;;;;;;;9.01;49.36;96854.76;1676262;84;21218;-85
2021/04/25 11:21:50;;;;;;;14.30;7.00;;;;;;;9.15;48.51;96853.19;1665763;86;21113;-84
2021/04/25 11:24:30;;;;;;;11.48;5.95;;;;;;;9.11;47.99;96849.99;1674980;86;21124;-86
2021/04/25 11:27:00;;;;;;;13.40;7.20;;;;;;;9.21;48.34;96847.37;1675249;86;21298;-86
2021/04/25 11:29:52;;;;;;;13.25;7.75;;;;;;;9.23;47.59;96843.92;1667977;85;21220;-87
2021/04/25 11:32:29;;;;;;;14.68;8.35;;;;;;;9.19;47.24;96846.84;1668466;85;21254;-86
2021/04/25 11:34:59;;;;;;;10.38;7.50;;;;;;;9.15;47.83;96847.11;1673858;85;21176;-87
2021/04/25 11:37:27;;;;;;;;;;;;;;;9.20;47.90;96846.58;1669530;85;21136;-86